sensor_id;sensor_type;location;lat;lon;timestamp;temperature;humidity
6462;DHT22;3264;42.862;25.098;2023-05-28T00:01:03;14.50;99.90
6462;DHT22;3264;42.862;25.098;2023-05-28T00:03:35;14.50;99.90
6462;DHT22;3264;42.862;25.098;2023-05-28T00:06:05;14.40;99.90
6462;DHT22;3264;42.862;25.098;2023-05-28T00:08:33;14.50;99.90
6462;DHT22;3264;42.862;25.098;2023-05-28T00:11:02;14.40;99.90
6462;DHT22;3264;42.862;25.098;2023-05-28T00:13:34;14.40;99.90
6462;DHT22;3264;42.862;25.098;2023-05-28T00:16:02;14.40;99.90
6462;DHT22;3264;42.862;25.098;2023-05-28T00:18:30;14.50;99.90
6462;DHT22;3264;42.862;25.098;2023-05-28T00:20:58;14.50;99.90
6462;DHT22;3264;42.862;25.098;2023-05-28T00:23:29;14.50;99.90
6462;DHT22;3264;42.862;25.098;2023-05-28T00:25:56;14.60;99.90
6462;DHT22;3264;42.862;25.098;2023-05-28T00:28:27;14.50;99.90
6462;DHT22;3264;42.862;25.098;2023-05-28T00:30:58;14.50;99.90
6462;DHT22;3264;42.862;25.098;2023-05-28T00:33:56;14.40;99.90
6462;DHT22;3264;42.862;25.098;2023-05-28T00:36:25;14.40;99.90
6462;DHT22;3264;42.862;25.098;2023-05-28T00:38:53;14.40;99.90
6462;DHT22;3264;42.862;25.098;2023-05-28T00:41:36;14.40;99.90
6462;DHT22;3264;42.862;25.098;2023-05-28T00:44:18;14.20;99.90
6462;DHT22;3264;42.862;25.098;2023-05-28T00:46:47;14.30;99.90
6462;DHT22;3264;42.862;25.098;2023-05-28T00:49:31;14.30;99.90
6462;DHT22;3264;42.862;25.098;2023-05-28T00:52:01;14.40;99.90
6462;DHT22;3264;42.862;25.098;2023-05-28T00:54:33;14.40;99.90
6462;DHT22;3264;42.862;25.098;2023-05-28T00:57:02;14.50;99.90
6462;DHT22;3264;42.862;25.098;2023-05-28T00:59:32;14.60;99.90
6462;DHT22;3264;42.862;25.098;2023-05-28T01:02:26;14.60;99.90
6462;DHT22;3264;42.862;25.098;2023-05-28T01:04:56;14.60;99.90
6462;DHT22;3264;42.862;25.098;2023-05-28T01:07:36;14.60;99.90
6462;DHT22;3264;42.862;25.098;2023-05-28T01:10:07;14.70;99.90
6462;DHT22;3264;42.862;25.098;2023-05-28T01:12:35;14.70;99.90
6462;DHT22;3264;42.862;25.098;2023-05-28T01:15:08;14.70;99.90
6462;DHT22;3264;42.862;25.098;2023-05-28T01:17:39;14.80;99.90
6462;DHT22;3264;42.862;25.098;2023-05-28T01:20:11;14.80;99.90
6462;DHT22;3264;42.862;25.098;2023-05-28T01:22:45;14.90;99.90
6462;DHT22;3264;42.862;25.098;2023-05-28T01:25:17;14.80;99.90
6462;DHT22;3264;42.862;25.098;2023-05-28T01:27:45;14.70;99.90
6462;DHT22;3264;42.862;25.098;2023-05-28T01:30:14;14.80;99.90
6462;DHT22;3264;42.862;25.098;2023-05-28T01:32:46;14.80;99.90
6462;DHT22;3264;42.862;25.098;2023-05-28T01:35:20;14.80;99.90
6462;DHT22;3264;42.862;25.098;2023-05-28T01:37:51;14.80;99.90
6462;DHT22;3264;42.862;25.098;2023-05-28T01:40:27;14.80;99.90
6462;DHT22;3264;42.862;25.098;2023-05-28T01:43:02;14.70;99.90
6462;DHT22;3264;42.862;25.098;2023-05-28T01:45:34;14.70;99.90
6462;DHT22;3264;42.862;25.098;2023-05-28T01:48:02;14.70;99.90
6462;DHT22;3264;42.862;25.098;2023-05-28T01:50:35;14.80;99.90
6462;DHT22;3264;42.862;25.098;2023-05-28T01:53:02;14.80;99.90
6462;DHT22;3264;42.862;25.098;2023-05-28T01:55:36;14.70;99.90
6462;DHT22;3264;42.862;25.098;2023-05-28T01:58:07;14.80;99.90
6462;DHT22;3264;42.862;25.098;2023-05-28T02:00:43;14.70;99.90
6462;DHT22;3264;42.862;25.098;2023-05-28T02:03:15;14.70;99.90
6462;DHT22;3264;42.862;25.098;2023-05-28T02:05:43;14.60;99.90
6462;DHT22;3264;42.862;25.098;2023-05-28T02:08:11;14.70;99.90
6462;DHT22;3264;42.862;25.098;2023-05-28T02:10:47;14.70;99.90
6462;DHT22;3264;42.862;25.098;2023-05-28T02:13:15;14.80;99.90
6462;DHT22;3264;42.862;25.098;2023-05-28T02:15:49;14.80;99.90
6462;DHT22;3264;42.862;25.098;2023-05-28T02:18:19;14.70;99.90
6462;DHT22;3264;42.862;25.098;2023-05-28T02:20:54;14.70;99.90
6462;DHT22;3264;42.862;25.098;2023-05-28T02:23:26;14.60;99.90
6462;DHT22;3264;42.862;25.098;2023-05-28T02:26:01;14.60;99.90
6462;DHT22;3264;42.862;25.098;2023-05-28T02:28:56;14.50;99.90
6462;DHT22;3264;42.862;25.098;2023-05-28T02:31:23;14.60;99.90
6462;DHT22;3264;42.862;25.098;2023-05-28T02:33:51;14.60;99.90
6462;DHT22;3264;42.862;25.098;2023-05-28T02:36:20;14.60;99.90
6462;DHT22;3264;42.862;25.098;2023-05-28T02:38:51;14.50;99.90
6462;DHT22;3264;42.862;25.098;2023-05-28T02:41:20;14.50;99.90
6462;DHT22;3264;42.862;25.098;2023-05-28T02:43:51;14.50;99.90
6462;DHT22;3264;42.862;25.098;2023-05-28T02:46:19;14.50;99.90
6462;DHT22;3264;42.862;25.098;2023-05-28T02:48:58;14.60;99.90
6462;DHT22;3264;42.862;25.098;2023-05-28T02:51:34;14.60;99.90
6462;DHT22;3264;42.862;25.098;2023-05-28T02:54:01;14.60;99.90
6462;DHT22;3264;42.862;25.098;2023-05-28T02:56:34;14.50;99.90
6462;DHT22;3264;42.862;25.098;2023-05-28T02:59:06;14.50;99.90
6462;DHT22;3264;42.862;25.098;2023-05-28T03:01:34;14.60;99.90
6462;DHT22;3264;42.862;25.098;2023-05-28T03:04:03;14.60;99.90
6462;DHT22;3264;42.862;25.098;2023-05-28T03:06:36;14.70;99.90
6462;DHT22;3264;42.862;25.098;2023-05-28T03:09:20;14.70;99.90
6462;DHT22;3264;42.862;25.098;2023-05-28T03:11:50;14.70;99.90
6462;DHT22;3264;42.862;25.098;2023-05-28T03:14:20;14.70;99.90
6462;DHT22;3264;42.862;25.098;2023-05-28T03:16:48;14.70;99.90
6462;DHT22;3264;42.862;25.098;2023-05-28T03:19:16;14.70;99.90
6462;DHT22;3264;42.862;25.098;2023-05-28T03:21:43;14.80;99.90
6462;DHT22;3264;42.862;25.098;2023-05-28T03:24:16;14.80;99.90
6462;DHT22;3264;42.862;25.098;2023-05-28T03:26:44;14.70;99.90
6462;DHT22;3264;42.862;25.098;2023-05-28T03:29:13;14.70;99.90
6462;DHT22;3264;42.862;25.098;2023-05-28T03:31:46;14.70;99.90
6462;DHT22;3264;42.862;25.098;2023-05-28T03:34:15;14.70;99.90
6462;DHT22;3264;42.862;25.098;2023-05-28T03:36:44;14.80;99.90
6462;DHT22;3264;42.862;25.098;2023-05-28T03:39:12;14.80;99.90
6462;DHT22;3264;42.862;25.098;2023-05-28T03:41:41;14.80;99.90
6462;DHT22;3264;42.862;25.098;2023-05-28T03:44:13;14.80;99.90
6462;DHT22;3264;42.862;25.098;2023-05-28T03:46:42;14.70;99.90
6462;DHT22;3264;42.862;25.098;2023-05-28T03:49:10;14.80;99.90
6462;DHT22;3264;42.862;25.098;2023-05-28T03:51:39;14.90;99.90
6462;DHT22;3264;42.862;25.098;2023-05-28T03:54:10;14.80;99.90
6462;DHT22;3264;42.862;25.098;2023-05-28T03:56:41;14.90;99.90
6462;DHT22;3264;42.862;25.098;2023-05-28T03:59:13;14.90;99.90
6462;DHT22;3264;42.862;25.098;2023-05-28T04:01:41;14.90;99.90
6462;DHT22;3264;42.862;25.098;2023-05-28T04:04:09;14.80;99.90
6462;DHT22;3264;42.862;25.098;2023-05-28T04:06:42;15.00;99.90
6462;DHT22;3264;42.862;25.098;2023-05-28T04:09:10;14.90;99.90
6462;DHT22;3264;42.862;25.098;2023-05-28T04:11:37;15.00;99.90
6462;DHT22;3264;42.862;25.098;2023-05-28T04:14:29;15.00;99.90
6462;DHT22;3264;42.862;25.098;2023-05-28T04:16:57;15.00;99.90
6462;DHT22;3264;42.862;25.098;2023-05-28T04:19:24;15.00;99.90
6462;DHT22;3264;42.862;25.098;2023-05-28T04:21:53;15.00;99.90
6462;DHT22;3264;42.862;25.098;2023-05-28T04:24:32;15.00;99.90
6462;DHT22;3264;42.862;25.098;2023-05-28T04:27:00;15.00;99.90
6462;DHT22;3264;42.862;25.098;2023-05-28T04:29:53;15.00;99.90
6462;DHT22;3264;42.862;25.098;2023-05-28T04:32:24;15.00;99.90
6462;DHT22;3264;42.862;25.098;2023-05-28T04:34:56;15.00;99.90
6462;DHT22;3264;42.862;25.098;2023-05-28T04:37:23;14.90;99.90
6462;DHT22;3264;42.862;25.098;2023-05-28T04:39:57;14.90;99.90
6462;DHT22;3264;42.862;25.098;2023-05-28T04:42:30;14.90;99.90
6462;DHT22;3264;42.862;25.098;2023-05-28T04:45:02;14.80;99.90
6462;DHT22;3264;42.862;25.098;2023-05-28T04:47:32;14.90;99.90
6462;DHT22;3264;42.862;25.098;2023-05-28T04:50:03;14.90;99.90
6462;DHT22;3264;42.862;25.098;2023-05-28T04:52:32;14.90;99.90
6462;DHT22;3264;42.862;25.098;2023-05-28T04:55:01;15.00;99.90
6462;DHT22;3264;42.862;25.098;2023-05-28T04:57:35;15.00;99.90
6462;DHT22;3264;42.862;25.098;2023-05-28T05:00:24;14.90;99.90
6462;DHT22;3264;42.862;25.098;2023-05-28T05:02:53;15.00;99.90
6462;DHT22;3264;42.862;25.098;2023-05-28T05:05:20;14.90;99.90
6462;DHT22;3264;42.862;25.098;2023-05-28T05:07:48;14.90;99.90
6462;DHT22;3264;42.862;25.098;2023-05-28T05:10:28;15.00;99.90
6462;DHT22;3264;42.862;25.098;2023-05-28T05:13:03;15.10;99.90
6462;DHT22;3264;42.862;25.098;2023-05-28T05:15:32;15.00;99.90
6462;DHT22;3264;42.862;25.098;2023-05-28T05:18:00;15.10;99.90
6462;DHT22;3264;42.862;25.098;2023-05-28T05:20:28;15.10;99.90
6462;DHT22;3264;42.862;25.098;2023-05-28T05:22:56;15.00;99.90
6462;DHT22;3264;42.862;25.098;2023-05-28T05:25:34;15.10;99.90
6462;DHT22;3264;42.862;25.098;2023-05-28T05:28:03;15.00;99.90
6462;DHT22;3264;42.862;25.098;2023-05-28T05:30:34;15.00;99.90
6462;DHT22;3264;42.862;25.098;2023-05-28T05:33:01;15.00;99.90
6462;DHT22;3264;42.862;25.098;2023-05-28T05:35:29;15.00;99.90
6462;DHT22;3264;42.862;25.098;2023-05-28T05:37:57;15.00;99.90
6462;DHT22;3264;42.862;25.098;2023-05-28T05:40:25;15.10;99.90
6462;DHT22;3264;42.862;25.098;2023-05-28T05:42:54;15.10;99.90
6462;DHT22;3264;42.862;25.098;2023-05-28T05:45:22;15.20;99.90
6462;DHT22;3264;42.862;25.098;2023-05-28T05:47:52;15.20;99.90
6462;DHT22;3264;42.862;25.098;2023-05-28T05:50:20;15.10;99.90
6462;DHT22;3264;42.862;25.098;2023-05-28T05:52:49;15.30;99.90
6462;DHT22;3264;42.862;25.098;2023-05-28T05:55:17;15.20;99.90
6462;DHT22;3264;42.862;25.098;2023-05-28T05:57:45;15.20;99.90
6462;DHT22;3264;42.862;25.098;2023-05-28T06:00:15;15.20;99.90
6462;DHT22;3264;42.862;25.098;2023-05-28T06:02:43;15.10;99.90
6462;DHT22;3264;42.862;25.098;2023-05-28T06:05:13;15.00;99.90
6462;DHT22;3264;42.862;25.098;2023-05-28T06:07:41;15.10;99.90
6462;DHT22;3264;42.862;25.098;2023-05-28T06:10:08;15.20;99.90
6462;DHT22;3264;42.862;25.098;2023-05-28T06:12:37;15.20;99.90
6462;DHT22;3264;42.862;25.098;2023-05-28T06:15:05;15.20;99.90
6462;DHT22;3264;42.862;25.098;2023-05-28T06:17:33;15.20;99.90
6462;DHT22;3264;42.862;25.098;2023-05-28T06:20:02;15.20;99.90
6462;DHT22;3264;42.862;25.098;2023-05-28T06:22:35;15.20;99.90
6462;DHT22;3264;42.862;25.098;2023-05-28T06:25:03;15.20;99.90
6462;DHT22;3264;42.862;25.098;2023-05-28T06:27:32;15.10;99.90
6462;DHT22;3264;42.862;25.098;2023-05-28T06:30:01;15.10;99.90
6462;DHT22;3264;42.862;25.098;2023-05-28T06:32:30;15.10;99.90
6462;DHT22;3264;42.862;25.098;2023-05-28T06:34:58;15.10;99.90
6462;DHT22;3264;42.862;25.098;2023-05-28T06:37:26;15.00;99.90
6462;DHT22;3264;42.862;25.098;2023-05-28T06:39:56;15.10;99.90
6462;DHT22;3264;42.862;25.098;2023-05-28T06:42:25;15.10;99.90
6462;DHT22;3264;42.862;25.098;2023-05-28T06:44:53;15.10;99.90
6462;DHT22;3264;42.862;25.098;2023-05-28T06:47:21;15.00;99.90
6462;DHT22;3264;42.862;25.098;2023-05-28T06:49:49;15.00;99.90
6462;DHT22;3264;42.862;25.098;2023-05-28T06:52:17;15.10;99.90
6462;DHT22;3264;42.862;25.098;2023-05-28T06:54:46;15.00;99.90
6462;DHT22;3264;42.862;25.098;2023-05-28T06:57:16;15.20;99.90
6462;DHT22;3264;42.862;25.098;2023-05-28T06:59:44;15.30;99.90
6462;DHT22;3264;42.862;25.098;2023-05-28T07:02:13;15.30;99.90
6462;DHT22;3264;42.862;25.098;2023-05-28T07:04:42;15.40;99.90
6462;DHT22;3264;42.862;25.098;2023-05-28T07:07:11;15.40;99.90
6462;DHT22;3264;42.862;25.098;2023-05-28T07:09:40;15.40;99.90
6462;DHT22;3264;42.862;25.098;2023-05-28T07:12:11;15.40;99.90
6462;DHT22;3264;42.862;25.098;2023-05-28T07:14:45;15.30;99.90
6462;DHT22;3264;42.862;25.098;2023-05-28T07:17:15;15.40;99.90
6462;DHT22;3264;42.862;25.098;2023-05-28T07:19:46;15.30;99.90
6462;DHT22;3264;42.862;25.098;2023-05-28T07:22:17;15.40;99.90
6462;DHT22;3264;42.862;25.098;2023-05-28T07:24:48;15.20;99.90
6462;DHT22;3264;42.862;25.098;2023-05-28T07:27:18;15.20;99.90
6462;DHT22;3264;42.862;25.098;2023-05-28T07:29:51;15.10;99.90
6462;DHT22;3264;42.862;25.098;2023-05-28T07:32:20;15.20;99.90
6462;DHT22;3264;42.862;25.098;2023-05-28T07:34:48;15.20;99.90
6462;DHT22;3264;42.862;25.098;2023-05-28T07:37:18;15.10;99.90
6462;DHT22;3264;42.862;25.098;2023-05-28T07:39:48;15.20;99.90
6462;DHT22;3264;42.862;25.098;2023-05-28T07:42:18;15.10;99.90
6462;DHT22;3264;42.862;25.098;2023-05-28T07:44:49;15.10;99.90
6462;DHT22;3264;42.862;25.098;2023-05-28T07:47:19;15.20;99.90
6462;DHT22;3264;42.862;25.098;2023-05-28T07:49:50;15.10;99.90
6462;DHT22;3264;42.862;25.098;2023-05-28T07:52:20;15.00;99.90
6462;DHT22;3264;42.862;25.098;2023-05-28T07:54:49;14.90;99.90
6462;DHT22;3264;42.862;25.098;2023-05-28T07:57:36;14.90;99.90
6462;DHT22;3264;42.862;25.098;2023-05-28T08:00:16;15.00;99.90
6462;DHT22;3264;42.862;25.098;2023-05-28T08:02:46;15.00;99.90
6462;DHT22;3264;42.862;25.098;2023-05-28T08:05:16;15.10;99.90
6462;DHT22;3264;42.862;25.098;2023-05-28T08:07:45;15.20;99.90
6462;DHT22;3264;42.862;25.098;2023-05-28T08:10:14;15.30;99.90
6462;DHT22;3264;42.862;25.098;2023-05-28T08:12:50;15.30;99.90
6462;DHT22;3264;42.862;25.098;2023-05-28T08:15:19;15.50;99.90
6462;DHT22;3264;42.862;25.098;2023-05-28T08:17:49;15.60;99.90
6462;DHT22;3264;42.862;25.098;2023-05-28T08:20:17;15.40;99.90
6462;DHT22;3264;42.862;25.098;2023-05-28T08:22:45;15.60;99.90
6462;DHT22;3264;42.862;25.098;2023-05-28T08:25:15;15.70;99.90
6462;DHT22;3264;42.862;25.098;2023-05-28T08:27:45;15.80;99.90
6462;DHT22;3264;42.862;25.098;2023-05-28T08:30:14;15.70;99.90
6462;DHT22;3264;42.862;25.098;2023-05-28T08:32:44;15.60;99.90
6462;DHT22;3264;42.862;25.098;2023-05-28T08:35:12;15.40;99.90
6462;DHT22;3264;42.862;25.098;2023-05-28T08:37:40;15.50;99.90
6462;DHT22;3264;42.862;25.098;2023-05-28T08:40:09;15.50;99.90
6462;DHT22;3264;42.862;25.098;2023-05-28T08:42:39;15.60;99.90
6462;DHT22;3264;42.862;25.098;2023-05-28T08:45:09;15.40;99.90
6462;DHT22;3264;42.862;25.098;2023-05-28T08:47:38;15.50;99.90
6462;DHT22;3264;42.862;25.098;2023-05-28T08:50:10;15.50;99.90
6462;DHT22;3264;42.862;25.098;2023-05-28T08:52:42;15.60;99.90
6462;DHT22;3264;42.862;25.098;2023-05-28T08:55:13;15.90;99.90
6462;DHT22;3264;42.862;25.098;2023-05-28T08:57:45;16.00;99.90
6462;DHT22;3264;42.862;25.098;2023-05-28T09:00:15;15.90;99.90
6462;DHT22;3264;42.862;25.098;2023-05-28T09:02:44;15.80;99.90
6462;DHT22;3264;42.862;25.098;2023-05-28T09:05:13;15.80;99.90
6462;DHT22;3264;42.862;25.098;2023-05-28T09:07:44;16.00;99.90
6462;DHT22;3264;42.862;25.098;2023-05-28T09:10:16;16.20;99.90
6462;DHT22;3264;42.862;25.098;2023-05-28T09:12:59;16.40;99.90
6462;DHT22;3264;42.862;25.098;2023-05-28T09:15:28;16.30;99.90
6462;DHT22;3264;42.862;25.098;2023-05-28T09:17:58;16.30;99.90
6462;DHT22;3264;42.862;25.098;2023-05-28T09:20:28;16.50;99.90
6462;DHT22;3264;42.862;25.098;2023-05-28T09:22:59;16.50;99.90
6462;DHT22;3264;42.862;25.098;2023-05-28T09:25:33;16.40;99.90
6462;DHT22;3264;42.862;25.098;2023-05-28T09:28:03;16.40;99.90
6462;DHT22;3264;42.862;25.098;2023-05-28T09:30:35;16.30;99.90
6462;DHT22;3264;42.862;25.098;2023-05-28T09:33:05;16.20;99.90
6462;DHT22;3264;42.862;25.098;2023-05-28T09:35:39;16.60;99.90
6462;DHT22;3264;42.862;25.098;2023-05-28T09:38:12;16.70;99.90
6462;DHT22;3264;42.862;25.098;2023-05-28T09:40:44;16.80;99.90
6462;DHT22;3264;42.862;25.098;2023-05-28T09:43:15;16.80;99.90
6462;DHT22;3264;42.862;25.098;2023-05-28T09:45:43;16.70;99.90
6462;DHT22;3264;42.862;25.098;2023-05-28T09:48:11;16.90;99.90
6462;DHT22;3264;42.862;25.098;2023-05-28T09:50:42;17.20;99.90
6462;DHT22;3264;42.862;25.098;2023-05-28T09:53:11;17.20;99.90
6462;DHT22;3264;42.862;25.098;2023-05-28T09:55:42;17.10;99.90
6462;DHT22;3264;42.862;25.098;2023-05-28T09:58:11;17.10;99.90
6462;DHT22;3264;42.862;25.098;2023-05-28T10:00:45;17.30;99.90
6462;DHT22;3264;42.862;25.098;2023-05-28T10:03:21;17.20;99.90
6462;DHT22;3264;42.862;25.098;2023-05-28T10:05:58;17.20;99.90
6462;DHT22;3264;42.862;25.098;2023-05-28T10:08:28;17.60;99.90
6462;DHT22;3264;42.862;25.098;2023-05-28T10:10:58;17.80;99.90
6462;DHT22;3264;42.862;25.098;2023-05-28T10:13:30;18.50;99.90
6462;DHT22;3264;42.862;25.098;2023-05-28T10:16:00;18.30;99.90
6462;DHT22;3264;42.862;25.098;2023-05-28T10:18:29;18.60;99.90
6462;DHT22;3264;42.862;25.098;2023-05-28T10:21:03;18.70;99.90
6462;DHT22;3264;42.862;25.098;2023-05-28T10:23:32;18.90;99.90
6462;DHT22;3264;42.862;25.098;2023-05-28T10:26:01;19.00;99.90
6462;DHT22;3264;42.862;25.098;2023-05-28T10:28:47;19.10;99.90
6462;DHT22;3264;42.862;25.098;2023-05-28T10:31:24;19.20;99.90
6462;DHT22;3264;42.862;25.098;2023-05-28T10:33:55;18.70;99.90
6462;DHT22;3264;42.862;25.098;2023-05-28T10:36:25;18.60;99.90
6462;DHT22;3264;42.862;25.098;2023-05-28T10:38:58;18.80;99.90
6462;DHT22;3264;42.862;25.098;2023-05-28T10:41:32;18.60;99.90
6462;DHT22;3264;42.862;25.098;2023-05-28T10:44:07;18.40;99.90
6462;DHT22;3264;42.862;25.098;2023-05-28T10:46:39;18.80;99.90
6462;DHT22;3264;42.862;25.098;2023-05-28T10:49:11;19.00;99.90
6462;DHT22;3264;42.862;25.098;2023-05-28T10:51:55;19.60;99.90
6462;DHT22;3264;42.862;25.098;2023-05-28T10:54:41;20.40;99.90
6462;DHT22;3264;42.862;25.098;2023-05-28T10:57:12;21.40;99.90
6462;DHT22;3264;42.862;25.098;2023-05-28T10:59:44;21.20;99.90
6462;DHT22;3264;42.862;25.098;2023-05-28T11:02:17;20.60;99.90
6462;DHT22;3264;42.862;25.098;2023-05-28T11:04:50;20.40;99.90
6462;DHT22;3264;42.862;25.098;2023-05-28T11:07:22;20.30;99.90
6462;DHT22;3264;42.862;25.098;2023-05-28T11:09:51;20.10;99.90
6462;DHT22;3264;42.862;25.098;2023-05-28T11:12:21;19.70;99.90
6462;DHT22;3264;42.862;25.098;2023-05-28T11:14:50;20.30;99.90
6462;DHT22;3264;42.862;25.098;2023-05-28T11:17:20;20.80;99.90
6462;DHT22;3264;42.862;25.098;2023-05-28T11:19:50;20.60;99.90
6462;DHT22;3264;42.862;25.098;2023-05-28T11:22:22;20.30;99.90
6462;DHT22;3264;42.862;25.098;2023-05-28T11:24:56;19.80;99.90
6462;DHT22;3264;42.862;25.098;2023-05-28T11:27:26;19.20;99.90
6462;DHT22;3264;42.862;25.098;2023-05-28T11:29:56;19.10;99.90
6462;DHT22;3264;42.862;25.098;2023-05-28T11:32:26;19.30;99.90
6462;DHT22;3264;42.862;25.098;2023-05-28T11:34:57;19.30;99.90
6462;DHT22;3264;42.862;25.098;2023-05-28T11:37:32;19.20;99.90
6462;DHT22;3264;42.862;25.098;2023-05-28T11:40:03;19.10;99.90
6462;DHT22;3264;42.862;25.098;2023-05-28T11:42:37;18.80;99.90
6462;DHT22;3264;42.862;25.098;2023-05-28T11:45:22;18.60;99.90
6462;DHT22;3264;42.862;25.098;2023-05-28T11:47:51;18.70;99.90
6462;DHT22;3264;42.862;25.098;2023-05-28T11:50:20;18.80;99.90
6462;DHT22;3264;42.862;25.098;2023-05-28T11:52:52;19.00;99.90
6462;DHT22;3264;42.862;25.098;2023-05-28T11:55:23;19.00;99.90
6462;DHT22;3264;42.862;25.098;2023-05-28T11:57:54;19.00;99.90
6462;DHT22;3264;42.862;25.098;2023-05-28T12:00:31;18.80;99.90
6462;DHT22;3264;42.862;25.098;2023-05-28T12:03:01;18.80;99.90
6462;DHT22;3264;42.862;25.098;2023-05-28T12:05:36;19.10;99.90
6462;DHT22;3264;42.862;25.098;2023-05-28T12:08:07;19.00;99.90
6462;DHT22;3264;42.862;25.098;2023-05-28T12:10:39;19.20;99.90
6462;DHT22;3264;42.862;25.098;2023-05-28T12:13:11;19.60;99.90
6462;DHT22;3264;42.862;25.098;2023-05-28T12:15:39;20.20;99.90
6462;DHT22;3264;42.862;25.098;2023-05-28T12:18:08;20.40;99.90
6462;DHT22;3264;42.862;25.098;2023-05-28T12:20:40;20.90;99.90
6462;DHT22;3264;42.862;25.098;2023-05-28T12:23:11;20.70;99.90
6462;DHT22;3264;42.862;25.098;2023-05-28T12:25:46;20.30;99.90
6462;DHT22;3264;42.862;25.098;2023-05-28T12:28:16;20.20;99.90
6462;DHT22;3264;42.862;25.098;2023-05-28T12:30:47;20.00;99.90
6462;DHT22;3264;42.862;25.098;2023-05-28T12:33:17;20.30;99.90
6462;DHT22;3264;42.862;25.098;2023-05-28T12:35:46;20.60;99.90
6462;DHT22;3264;42.862;25.098;2023-05-28T12:38:17;20.90;99.90
6462;DHT22;3264;42.862;25.098;2023-05-28T12:40:45;21.00;99.90
6462;DHT22;3264;42.862;25.098;2023-05-28T12:43:15;21.00;99.90
6462;DHT22;3264;42.862;25.098;2023-05-28T12:45:44;20.90;99.90
6462;DHT22;3264;42.862;25.098;2023-05-28T12:48:12;20.70;99.90
6462;DHT22;3264;42.862;25.098;2023-05-28T12:50:40;20.40;99.90
6462;DHT22;3264;42.862;25.098;2023-05-28T12:53:08;20.30;99.90
6462;DHT22;3264;42.862;25.098;2023-05-28T12:55:43;20.80;99.90
6462;DHT22;3264;42.862;25.098;2023-05-28T12:58:13;20.80;99.90
6462;DHT22;3264;42.862;25.098;2023-05-28T13:00:42;20.50;99.90
6462;DHT22;3264;42.862;25.098;2023-05-28T13:03:10;20.80;99.90
6462;DHT22;3264;42.862;25.098;2023-05-28T13:05:40;21.10;99.90
6462;DHT22;3264;42.862;25.098;2023-05-28T13:08:09;21.20;99.90
6462;DHT22;3264;42.862;25.098;2023-05-28T13:10:37;21.20;99.90
6462;DHT22;3264;42.862;25.098;2023-05-28T13:13:12;21.00;99.90
6462;DHT22;3264;42.862;25.098;2023-05-28T13:15:40;20.80;99.90
6462;DHT22;3264;42.862;25.098;2023-05-28T13:18:08;20.80;99.90
6462;DHT22;3264;42.862;25.098;2023-05-28T13:20:37;20.40;99.90
6462;DHT22;3264;42.862;25.098;2023-05-28T13:23:05;20.50;99.90
6462;DHT22;3264;42.862;25.098;2023-05-28T13:25:34;20.50;99.90
6462;DHT22;3264;42.862;25.098;2023-05-28T13:28:04;20.60;99.90
6462;DHT22;3264;42.862;25.098;2023-05-28T13:30:34;20.60;99.90
6462;DHT22;3264;42.862;25.098;2023-05-28T13:33:03;20.20;99.90
6462;DHT22;3264;42.862;25.098;2023-05-28T13:35:31;19.90;99.90
6462;DHT22;3264;42.862;25.098;2023-05-28T13:38:00;19.50;99.90
6462;DHT22;3264;42.862;25.098;2023-05-28T13:40:29;19.00;99.90
6462;DHT22;3264;42.862;25.098;2023-05-28T13:42:59;18.70;99.90
6462;DHT22;3264;42.862;25.098;2023-05-28T13:45:28;18.50;99.90
6462;DHT22;3264;42.862;25.098;2023-05-28T13:47:58;18.10;99.90
6462;DHT22;3264;42.862;25.098;2023-05-28T13:50:29;18.10;99.90
6462;DHT22;3264;42.862;25.098;2023-05-28T13:52:58;18.20;99.90
6462;DHT22;3264;42.862;25.098;2023-05-28T13:55:26;18.10;99.90
6462;DHT22;3264;42.862;25.098;2023-05-28T13:57:55;18.00;99.90
6462;DHT22;3264;42.862;25.098;2023-05-28T14:00:23;17.90;99.90
6462;DHT22;3264;42.862;25.098;2023-05-28T14:02:53;17.90;99.90
6462;DHT22;3264;42.862;25.098;2023-05-28T14:05:22;18.10;99.90
6462;DHT22;3264;42.862;25.098;2023-05-28T14:07:52;17.80;99.90
6462;DHT22;3264;42.862;25.098;2023-05-28T14:10:22;17.60;99.90
6462;DHT22;3264;42.862;25.098;2023-05-28T14:12:52;17.70;99.90
6462;DHT22;3264;42.862;25.098;2023-05-28T14:15:22;17.60;99.90
6462;DHT22;3264;42.862;25.098;2023-05-28T14:17:54;17.40;99.90
6462;DHT22;3264;42.862;25.098;2023-05-28T14:20:26;17.40;99.90
6462;DHT22;3264;42.862;25.098;2023-05-28T14:22:56;17.40;99.90
6462;DHT22;3264;42.862;25.098;2023-05-28T14:25:25;17.10;99.90
6462;DHT22;3264;42.862;25.098;2023-05-28T14:27:55;17.20;99.90
6462;DHT22;3264;42.862;25.098;2023-05-28T14:30:25;17.40;99.90
6462;DHT22;3264;42.862;25.098;2023-05-28T14:32:54;17.50;99.90
6462;DHT22;3264;42.862;25.098;2023-05-28T14:35:24;17.20;99.90
6462;DHT22;3264;42.862;25.098;2023-05-28T14:37:55;17.40;99.90
6462;DHT22;3264;42.862;25.098;2023-05-28T14:40:25;17.40;99.90
6462;DHT22;3264;42.862;25.098;2023-05-28T14:42:55;17.30;99.90
6462;DHT22;3264;42.862;25.098;2023-05-28T14:45:23;17.50;99.90
6462;DHT22;3264;42.862;25.098;2023-05-28T14:47:51;17.40;99.90
6462;DHT22;3264;42.862;25.098;2023-05-28T14:50:19;17.50;99.90
6462;DHT22;3264;42.862;25.098;2023-05-28T14:52:50;17.60;99.90
6462;DHT22;3264;42.862;25.098;2023-05-28T14:55:19;17.80;99.90
6462;DHT22;3264;42.862;25.098;2023-05-28T14:57:49;17.90;99.90
6462;DHT22;3264;42.862;25.098;2023-05-28T15:00:19;18.10;99.90
6462;DHT22;3264;42.862;25.098;2023-05-28T15:02:47;18.10;99.90
6462;DHT22;3264;42.862;25.098;2023-05-28T15:05:16;18.20;99.90
6462;DHT22;3264;42.862;25.098;2023-05-28T15:07:43;18.30;99.90
6462;DHT22;3264;42.862;25.098;2023-05-28T15:10:14;18.20;99.90
6462;DHT22;3264;42.862;25.098;2023-05-28T15:12:43;17.90;99.90
6462;DHT22;3264;42.862;25.098;2023-05-28T15:15:11;17.80;99.90
6462;DHT22;3264;42.862;25.098;2023-05-28T15:17:40;17.90;99.90
6462;DHT22;3264;42.862;25.098;2023-05-28T15:20:09;18.10;99.90
6462;DHT22;3264;42.862;25.098;2023-05-28T15:22:38;18.20;99.90
6462;DHT22;3264;42.862;25.098;2023-05-28T15:25:08;18.10;99.90
6462;DHT22;3264;42.862;25.098;2023-05-28T15:27:40;18.30;99.90
6462;DHT22;3264;42.862;25.098;2023-05-28T15:30:09;18.30;99.90
6462;DHT22;3264;42.862;25.098;2023-05-28T15:32:38;18.60;99.90
6462;DHT22;3264;42.862;25.098;2023-05-28T15:35:09;18.60;99.90
6462;DHT22;3264;42.862;25.098;2023-05-28T15:37:40;18.60;99.90
6462;DHT22;3264;42.862;25.098;2023-05-28T15:40:09;18.30;99.90
6462;DHT22;3264;42.862;25.098;2023-05-28T15:42:40;18.20;99.90
6462;DHT22;3264;42.862;25.098;2023-05-28T15:45:10;18.10;99.90
6462;DHT22;3264;42.862;25.098;2023-05-28T15:47:38;18.10;99.90
6462;DHT22;3264;42.862;25.098;2023-05-28T15:50:10;18.00;99.90
6462;DHT22;3264;42.862;25.098;2023-05-28T15:52:39;18.00;99.90
6462;DHT22;3264;42.862;25.098;2023-05-28T15:55:10;18.10;99.90
6462;DHT22;3264;42.862;25.098;2023-05-28T15:57:41;18.20;99.90
6462;DHT22;3264;42.862;25.098;2023-05-28T16:00:10;18.20;99.90
6462;DHT22;3264;42.862;25.098;2023-05-28T16:02:39;18.10;99.90
6462;DHT22;3264;42.862;25.098;2023-05-28T16:05:10;18.10;99.90
6462;DHT22;3264;42.862;25.098;2023-05-28T16:07:40;17.90;99.90